Time;durP1;ratioP1;P1;durP2;ratioP2;P2;SDS_P1;SDS_P2;PMS_P1;PMS_P2;Temp;Humidity;BMP_temperature;BMP_pressure;BME280_temperature;BME280_humidity;BME280_pressure;Samples;Min_cycle;Max_cycle;Signal;HPM_P1;HPM_P2
2022/06/23 00:02:28;;;;;;;88.35;53.35;;;;;;;18.61;61.44;100148.47;5086665;28;20080;-68
2022/06/23 00:04:59;;;;;;;27.50;20.67;;;;;;;18.50;62.10;100124.63;5083684;28;20072;-69
2022/06/23 00:07:32;;;;;;;15.93;14.25;;;;;;;18.12;62.18;100054.91;5085057;28;20106;-68
2022/06/23 00:10:03;;;;;;;18.40;15.48;;;;;;;18.62;62.60;100127.50;5086023;28;20072;-68
2022/06/23 00:12:31;;;;;;;14.75;13.25;;;;;;;18.77;62.25;100151.56;5076412;28;20074;-67
2022/06/23 00:14:58;;;;;;;12.30;10.95;;;;;;;18.77;62.70;100145.91;5079259;28;20139;-68
2022/06/23 00:17:30;;;;;;;17.27;11.38;;;;;;;18.79;62.69;100132.22;5091086;28;20065;-67
2022/06/23 00:20:02;;;;;;;12.60;11.40;;;;;;;18.80;62.77;100138.69;5082621;28;20071;-68
2022/06/23 00:22:31;;;;;;;12.77;11.13;;;;;;;18.83;62.82;100129.53;5082786;28;20040;-68
2022/06/23 00:25:03;;;;;;;13.15;10.15;;;;;;;18.84;62.86;100128.38;5086261;28;20131;-67
2022/06/23 00:27:33;;;;;;;10.73;9.85;;;;;;;18.79;62.87;100115.25;5087620;28;20048;-67
2022/06/23 00:30:05;;;;;;;12.50;10.35;;;;;;;18.93;63.08;100134.75;5088051;28;20068;-67
2022/06/23 00:32:32;;;;;;;11.20;10.07;;;;;;;18.95;63.04;100123.94;5090636;28;20044;-67
2022/06/23 00:35:03;;;;;;;13.02;9.88;;;;;;;18.99;62.83;100124.88;5092835;28;20048;-67
2022/06/23 00:37:30;;;;;;;16.55;9.70;;;;;;;18.93;62.75;100114.94;5086358;28;20076;-68
2022/06/23 00:40:12;;;;;;;10.32;9.43;;;;;;;18.97;62.87;100121.56;5088696;28;20040;-68
2022/06/23 00:42:57;;;;;;;10.50;9.02;;;;;;;19.02;62.66;100135.50;5090986;28;20052;-68
2022/06/23 00:45:39;;;;;;;10.15;9.32;;;;;;;19.00;62.42;100126.53;5091526;28;20048;-69
2022/06/23 00:48:12;;;;;;;14.57;10.65;;;;;;;19.02;62.82;100141.16;5092413;28;20055;-69
2022/06/23 00:50:50;;;;;;;13.32;10.80;;;;;;;19.02;62.87;100135.50;5089474;28;20081;-69
2022/06/23 00:53:22;;;;;;;14.35;10.57;;;;;;;19.02;62.81;100132.69;5092280;28;20437;-70
2022/06/23 00:56:46;;;;;;;14.48;11.13;;;;;;;18.99;62.82;100119.22;5089940;28;20080;-69
2022/06/23 00:59:32;;;;;;;14.45;10.60;;;;;;;19.07;62.64;100125.97;5032205;28;20077;-70
2022/06/23 01:02:23;;;;;;;11.85;10.70;;;;;;;18.98;62.59;100117.59;5027618;28;20582;-68
2022/06/23 01:05:01;;;;;;;11.60;10.23;;;;;;;18.46;62.92;100021.84;5075684;28;20043;-68
2022/06/23 01:08:00;;;;;;;20.70;10.70;;;;;;;19.05;62.53;100109.34;5082818;28;20075;-68
2022/06/23 01:10:56;;;;;;;12.27;9.73;;;;;;;19.11;62.10;100102.31;5065944;28;20098;-69
2022/06/23 01:13:47;;;;;;;12.65;10.27;;;;;;;19.12;62.21;100103.94;5077498;28;20106;-69
2022/06/23 01:16:20;;;;;;;11.65;10.15;;;;;;;19.15;61.98;100108.91;5085828;28;20072;-69
2022/06/23 01:19:00;;;;;;;13.52;10.90;;;;;;;19.07;61.86;100092.81;5095242;28;20048;-69
2022/06/23 01:21:36;;;;;;;10.80;9.43;;;;;;;19.14;61.77;100101.59;5090151;28;20129;-66
2022/06/23 01:24:06;;;;;;;12.55;10.25;;;;;;;18.74;61.95;100049.59;5085758;28;20044;-68
2022/06/23 01:26:56;;;;;;;12.43;11.13;;;;;;;19.03;61.68;100091.88;5090456;28;20080;-69
2022/06/23 01:29:37;;;;;;;10.00;9.00;;;;;;;18.97;62.18;100092.44;5075205;28;20067;-68
2022/06/23 01:32:13;;;;;;;11.77;9.65;;;;;;;18.95;61.78;100089.97;5076852;28;20127;-67
2022/06/23 01:35:00;;;;;;;9.77;8.98;;;;;;;18.93;61.60;100089.50;5090246;28;20083;-68
2022/06/23 01:37:56;;;;;;;10.30;8.75;;;;;;;18.87;62.07;100088.03;5080895;28;20075;-66
2022/06/23 01:40:28;;;;;;;11.05;8.25;;;;;;;18.86;61.95;100089.22;5075685;28;20040;-65
2022/06/23 01:43:02;;;;;;;12.70;8.98;;;;;;;18.76;62.08;100087.66;5077832;28;20083;-67
2022/06/23 01:45:48;;;;;;;10.35;9.40;;;;;;;18.65;62.23;100075.91;5082756;28;20066;-67
2022/06/23 01:48:52;;;;;;;11.30;10.40;;;;;;;17.97;62.70;99976.38;5088336;28;20151;-66
2022/06/23 01:51:37;;;;;;;10.23;9.35;;;;;;;18.67;62.47;100073.56;5082494;28;20105;-68
2022/06/23 01:54:16;;;;;;;11.50;10.40;;;;;;;18.60;62.64;100076.13;5084753;28;20483;-67
2022/06/23 01:57:04;;;;;;;12.43;10.02;;;;;;;18.47;62.60;100065.94;5077991;28;20113;-68
2022/06/23 01:59:36;;;;;;;11.23;10.07;;;;;;;18.55;62.70;100081.16;5077216;28;20045;-71
2022/06/23 02:02:21;;;;;;;12.18;11.10;;;;;;;18.51;63.22;100081.03;5083046;28;20109;-70
2022/06/23 02:04:57;;;;;;;12.52;11.63;;;;;;;18.44;63.00;100058.97;5076248;28;20050;-71
2022/06/23 02:07:40;;;;;;;13.00;11.63;;;;;;;18.63;62.70;100078.28;5075033;28;20102;-68
2022/06/23 02:10:21;;;;;;;13.55;11.93;;;;;;;18.18;62.27;99999.00;5081742;28;20117;-69
2022/06/23 02:12:57;;;;;;;13.02;10.93;;;;;;;18.63;62.58;100074.59;5085611;28;20121;-69
2022/06/23 02:15:29;;;;;;;12.02;10.23;;;;;;;18.73;62.61;100081.84;5079785;28;20079;-69
2022/06/23 02:18:01;;;;;;;11.40;10.52;;;;;;;18.42;62.57;100021.72;5094414;28;20125;-70
2022/06/23 02:20:37;;;;;;;11.93;10.70;;;;;;;18.73;62.71;100073.38;5084830;28;20075;-69
2022/06/23 02:23:22;;;;;;;10.77;9.90;;;;;;;18.28;62.74;100000.56;5085463;28;20052;-69
2022/06/23 02:25:56;;;;;;;11.93;10.88;;;;;;;18.74;63.38;100072.22;5090731;28;20479;-69
2022/06/23 02:28:26;;;;;;;15.20;10.38;;;;;;;18.36;62.56;99994.84;5088942;28;20459;-70
2022/06/23 02:31:01;;;;;;;10.80;9.90;;;;;;;18.69;62.66;100048.56;5081493;28;20567;-69
2022/06/23 02:34:01;;;;;;;12.77;10.65;;;;;;;18.84;62.75;100068.97;5086932;28;20052;-68
2022/06/23 02:36:28;;;;;;;10.82;9.88;;;;;;;18.84;63.08;100083.94;5075197;28;20048;-70
2022/06/23 02:39:02;;;;;;;10.50;9.50;;;;;;;18.76;62.89;100048.03;5084165;28;20048;-69
2022/06/23 02:41:39;;;;;;;11.88;9.45;;;;;;;18.87;62.92;100073.91;5087596;28;20048;-69
2022/06/23 02:44:19;;;;;;;13.20;9.93;;;;;;;18.88;62.99;100075.56;5076823;28;20133;-69
2022/06/23 02:46:45;;;;;;;15.77;9.57;;;;;;;18.90;63.00;100076.84;5087712;28;20048;-69
2022/06/23 02:49:29;;;;;;;11.77;9.80;;;;;;;18.88;62.82;100067.09;5084758;28;20128;-69
2022/06/23 02:52:08;;;;;;;10.27;9.38;;;;;;;18.87;63.16;100071.06;5077600;28;20466;-70
2022/06/23 02:54:59;;;;;;;12.10;9.70;;;;;;;18.59;62.68;100020.72;5081065;28;20506;-69
2022/06/23 02:57:43;;;;;;;12.98;10.20;;;;;;;18.84;62.65;100069.78;5084081;28;20076;-69
2022/06/23 03:00:24;;;;;;;10.98;9.30;;;;;;;18.59;62.73;100037.69;5085977;28;20512;-69
2022/06/23 03:03:09;;;;;;;10.23;9.25;;;;;;;18.70;63.24;100070.06;5082631;28;20044;-69
2022/06/23 03:05:56;;;;;;;10.98;9.68;;;;;;;18.62;63.60;100059.63;5080338;28;20380;-69
2022/06/23 03:08:43;;;;;;;10.60;9.70;;;;;;;18.58;63.53;100053.03;5077485;28;20172;-69
2022/06/23 03:14:27;;;;;;;12.10;9.18;;;;;;;18.63;63.63;100058.47;5075555;28;20185;-69
2022/06/23 03:17:03;;;;;;;11.35;9.85;;;;;;;18.28;63.79;100006.22;5074762;28;20101;-69
2022/06/23 03:19:42;;;;;;;11.70;10.70;;;;;;;18.63;63.58;100061.31;5089150;28;20567;-69
2022/06/23 03:22:18;;;;;;;10.32;9.35;;;;;;;18.50;63.33;100031.31;5078146;28;20568;-69
2022/06/23 03:24:51;;;;;;;10.85;9.63;;;;;;;18.65;63.61;100053.28;5082659;28;20059;-68
2022/06/23 03:27:28;;;;;;;12.45;10.25;;;;;;;18.53;64.00;100056.06;5077151;28;20076;-67
2022/06/23 03:30:04;;;;;;;13.38;10.25;;;;;;;18.39;64.19;100045.06;5085275;28;20075;-68
2022/06/23 03:32:36;;;;;;;11.90;10.70;;;;;;;18.46;64.35;100078.41;5073434;28;20457;-69
2022/06/23 03:35:18;;;;;;;11.80;10.60;;;;;;;18.44;64.16;100058.13;5073411;28;20083;-68
2022/06/23 03:38:09;;;;;;;18.08;9.80;;;;;;;18.39;64.52;100055.50;5080809;28;20106;-69
2022/06/23 03:43:32;;;;;;;11.70;9.77;;;;;;;18.50;64.39;100056.75;5090418;28;20076;-68
2022/06/23 03:46:23;;;;;;;12.05;9.98;;;;;;;18.49;64.51;100055.09;5073156;28;20048;-68
2022/06/23 03:49:07;;;;;;;12.40;10.30;;;;;;;18.36;63.97;100016.63;5090091;28;20070;-68
2022/06/23 03:51:40;;;;;;;12.73;11.25;;;;;;;18.66;63.54;100054.94;5087826;28;20048;-67
2022/06/23 03:54:28;;;;;;;14.77;11.13;;;;;;;18.61;63.70;100057.97;5081772;28;20101;-66
2022/06/23 03:57:25;;;;;;;12.65;11.40;;;;;;;18.57;63.93;100054.19;5082641;28;20080;-68
2022/06/23 04:01:03;;;;;;;12.77;11.48;;;;;;;18.53;64.10;100058.91;5090626;28;20109;-67
2022/06/23 04:04:12;;;;;;;12.10;10.88;;;;;;;18.58;63.61;100053.03;5028386;28;20041;-71
2022/06/23 04:06:41;;;;;;;11.57;10.38;;;;;;;18.58;64.01;100053.03;5038022;28;20041;-70
2022/06/23 04:09:32;;;;;;;11.75;10.55;;;;;;;18.52;64.00;100048.75;5069976;28;20113;-71
2022/06/23 04:12:06;;;;;;;11.75;10.55;;;;;;;18.50;64.00;100058.78;5080362;28;20464;-70
2022/06/23 04:14:38;;;;;;;11.68;10.57;;;;;;;18.47;64.27;100051.78;5071855;28;20138;-69
2022/06/23 04:17:11;;;;;;;11.98;10.80;;;;;;;18.43;64.19;100048.84;5077063;28;20075;-70
2022/06/23 04:19:43;;;;;;;12.40;11.10;;;;;;;18.19;63.88;100017.63;5071989;28;20494;-68
2022/06/23 04:22:18;;;;;;;12.55;11.32;;;;;;;18.59;63.56;100059.50;5078632;28;20157;-70
2022/06/23 04:24:49;;;;;;;12.43;11.23;;;;;;;18.60;63.52;100050.69;5083055;28;20079;-69
2022/06/23 04:27:22;;;;;;;17.20;11.65;;;;;;;18.26;63.88;100000.13;5077510;28;20074;-69
2022/06/23 04:29:53;;;;;;;13.52;12.10;;;;;;;18.42;64.22;100040.69;5087808;28;20071;-69
2022/06/23 04:32:25;;;;;;;13.80;11.95;;;;;;;18.34;64.35;100047.25;5083656;28;20084;-69
2022/06/23 04:35:06;;;;;;;15.38;12.52;;;;;;;18.57;64.08;100061.88;5084783;28;20051;-70
2022/06/23 04:37:49;;;;;;;;;;;;;;;18.57;63.63;100062.69;5079758;28;20109;-71
2022/06/23 04:40:35;;;;;;;16.85;15.05;;;;;;;18.53;63.59;100070.22;5080861;28;19920;-68
2022/06/23 04:43:24;;;;;;;12.75;11.02;;;;;;;18.56;63.63;100072.31;5080797;28;20105;-69
2022/06/23 04:45:59;;;;;;;17.25;11.98;;;;;;;18.24;63.80;100021.03;5055128;28;20503;-68
2022/06/23 04:48:33;;;;;;;12.07;10.98;;;;;;;18.46;63.75;100050.97;5095812;28;20502;-68
2022/06/23 04:51:11;;;;;;;11.07;10.00;;;;;;;18.14;64.03;100018.63;5080506;28;20072;-68
2022/06/23 04:53:46;;;;;;;13.20;11.95;;;;;;;18.25;64.20;100041.66;5086683;28;20553;-70
2022/06/23 04:56:15;;;;;;;12.80;11.50;;;;;;;18.37;64.72;100075.66;5084357;28;20075;-70
2022/06/23 04:58:50;;;;;;;16.80;12.20;;;;;;;18.13;63.87;100033.94;5081040;28;20044;-70
2022/06/23 05:01:22;;;;;;;13.48;11.52;;;;;;;18.45;64.32;100079.56;5082693;28;20082;-70
2022/06/23 05:03:58;;;;;;;16.50;11.40;;;;;;;18.41;64.43;100070.97;5078322;28;20051;-69
2022/06/23 05:06:35;;;;;;;12.77;11.20;;;;;;;18.49;64.20;100083.38;5081212;28;20043;-70
2022/06/23 05:09:19;;;;;;;16.60;11.18;;;;;;;18.39;64.24;100076.16;5076672;28;20105;-70
2022/06/23 05:12:00;;;;;;;14.70;11.45;;;;;;;18.42;64.52;100075.44;5078319;28;20061;-70
2022/06/23 05:14:42;;;;;;;13.27;11.65;;;;;;;18.21;64.89;100064.13;5089109;28;20125;-70
2022/06/23 05:17:18;;;;;;;13.48;11.30;;;;;;;18.10;64.83;100043.09;5079221;28;20052;-74
2022/06/23 05:19:47;;;;;;;14.23;11.98;;;;;;;18.23;64.40;100047.66;5078295;28;20047;-74
2022/06/23 05:22:20;;;;;;;19.00;11.02;;;;;;;18.40;64.65;100079.81;5078388;28;20052;-69
2022/06/23 05:24:48;;;;;;;12.90;11.63;;;;;;;18.29;64.78;100064.41;5093938;28;20083;-67
2022/06/23 05:27:23;;;;;;;13.52;11.52;;;;;;;18.44;64.79;100094.91;5077460;28;20068;-70
2022/06/23 05:29:59;;;;;;;12.23;10.73;;;;;;;18.44;64.61;100086.41;5074776;28;20072;-69
2022/06/23 05:32:39;;;;;;;10.95;9.85;;;;;;;18.07;64.86;100051.44;5090979;28;20052;-69
2022/06/23 05:35:21;;;;;;;11.93;10.93;;;;;;;18.41;64.89;100098.41;5083058;28;20083;-72
2022/06/23 05:37:56;;;;;;;15.63;11.20;;;;;;;18.30;64.92;100086.69;5074771;28;20048;-67
2022/06/23 05:40:36;;;;;;;11.85;10.95;;;;;;;18.41;64.92;100079.44;5076847;28;20071;-68
2022/06/23 05:43:03;;;;;;;14.52;12.20;;;;;;;18.29;64.55;100022.00;5082815;28;20048;-67
2022/06/23 05:45:38;;;;;;;13.25;12.25;;;;;;;18.98;64.65;100100.59;5078965;28;20053;-68
2022/06/23 05:48:08;;;;;;;12.10;11.18;;;;;;;19.25;64.09;100098.31;5080902;28;20052;-67
2022/06/23 05:50:46;;;;;;;17.95;11.52;;;;;;;19.26;64.20;100099.97;5080812;28;20277;-68
2022/06/23 05:53:31;;;;;;;12.88;11.18;;;;;;;19.00;64.24;100024.66;5082818;28;20491;-68
2022/06/23 05:56:09;;;;;;;14.30;13.20;;;;;;;19.65;63.75;100099.34;5076965;28;20079;-73
2022/06/23 05:58:58;;;;;;;13.45;12.07;;;;;;;19.78;63.72;100099.38;5075214;28;20095;-69
2022/06/23 06:01:37;;;;;;;16.90;11.57;;;;;;;19.97;63.32;100102.44;5073247;28;20580;-68
2022/06/23 06:04:29;;;;;;;12.37;11.50;;;;;;;20.01;63.26;100103.38;5081841;28;20076;-68
2022/06/23 06:06:57;;;;;;;12.68;11.45;;;;;;;19.98;63.19;100104.09;5077130;28;20490;-69
2022/06/23 06:09:35;;;;;;;15.05;11.73;;;;;;;19.81;62.74;100078.81;5076203;28;20052;-69
2022/06/23 06:12:19;;;;;;;12.68;11.45;;;;;;;19.91;62.73;100109.53;5074228;28;20049;-69
2022/06/23 06:14:54;;;;;;;12.23;11.23;;;;;;;19.96;62.47;100117.78;5081250;28;20105;-68
2022/06/23 06:17:25;;;;;;;14.48;11.13;;;;;;;19.77;62.44;100120.38;5072427;28;20109;-68
2022/06/23 06:19:57;;;;;;;14.50;11.45;;;;;;;19.33;62.53;100066.25;5073676;28;20084;-69
2022/06/23 06:22:32;;;;;;;12.63;11.10;;;;;;;19.71;62.70;100121.78;5074068;28;20040;-70
2022/06/23 06:25:02;;;;;;;14.35;13.05;;;;;;;19.36;62.30;100068.38;5088457;28;20052;-69
2022/06/23 06:27:30;;;;;;;12.05;11.07;;;;;;;19.61;62.76;100106.88;5075022;28;20092;-68
2022/06/23 06:29:58;;;;;;;16.27;13.40;;;;;;;19.61;62.63;100106.88;5083159;28;20044;-71
2022/06/23 06:32:37;;;;;;;11.40;10.30;;;;;;;19.74;62.35;100116.25;5080700;28;20506;-72
2022/06/23 06:35:26;;;;;;;12.73;11.75;;;;;;;19.76;62.37;100113.91;5082070;28;20052;-69
2022/06/23 06:38:04;;;;;;;11.65;10.57;;;;;;;19.81;61.88;100121.31;5089464;28;20071;-71
2022/06/23 06:40:34;;;;;;;11.85;11.02;;;;;;;19.80;61.91;100131.00;5087684;28;20140;-68
2022/06/23 06:43:06;;;;;;;12.30;11.40;;;;;;;19.64;62.19;100116.69;5085353;28;20129;-69
2022/06/23 06:45:36;;;;;;;13.13;11.65;;;;;;;19.63;62.25;100130.03;5086249;28;20514;-70
2022/06/23 06:48:09;;;;;;;12.68;10.45;;;;;;;19.57;62.29;100128.59;5079247;28;20052;-68
2022/06/23 06:50:46;;;;;;;15.88;14.45;;;;;;;19.42;62.51;100141.44;5076972;28;20083;-69
2022/06/23 06:53:24;;;;;;;14.55;13.40;;;;;;;19.20;63.08;100141.00;5086645;28;20105;-69
2022/06/23 06:56:03;;;;;;;15.48;14.23;;;;;;;19.08;63.11;100128.47;5071364;28;20105;-69
2022/06/23 06:58:41;;;;;;;15.60;14.50;;;;;;;19.00;63.28;100137.03;5075762;28;20470;-68
2022/06/23 07:01:22;;;;;;;16.77;15.32;;;;;;;18.51;63.88;100086.69;5078195;28;20304;-67
2022/06/23 07:03:52;;;;;;;16.20;14.88;;;;;;;18.80;64.14;100141.53;5079776;28;20070;-67
2022/06/23 07:06:42;;;;;;;17.50;16.20;;;;;;;18.63;64.69;100139.63;5082464;28;20790;-68
2022/06/23 07:09:30;;;;;;;17.90;16.13;;;;;;;18.48;65.43;100132.59;5082512;28;20048;-67
2022/06/23 07:12:26;;;;;;;17.48;15.80;;;;;;;18.41;65.77;100138.81;5069763;28;20156;-67
2022/06/23 07:15:12;;;;;;;14.52;13.43;;;;;;;18.49;66.09;100139.91;5081254;28;20117;-68
2022/06/23 07:17:46;;;;;;;16.13;14.82;;;;;;;18.59;66.18;100156.47;5086642;28;20071;-68
2022/06/23 07:20:48;;;;;;;6.88;4.60;;;;;;;18.82;65.52;100142.03;5083742;28;20434;-68
2022/06/23 07:23:25;;;;;;;10.10;4.45;;;;;;;19.06;65.28;100142.13;5079867;28;20044;-68
2022/06/23 07:26:04;;;;;;;10.73;4.15;;;;;;;18.76;64.89;100103.81;5082937;28;20044;-68
2022/06/23 07:28:40;;;;;;;10.82;6.03;;;;;;;18.84;65.40;100129.19;5075593;28;20075;-68
2022/06/23 07:31:38;;;;;;;8.07;4.47;;;;;;;18.79;65.96;100142.72;5074258;28;20178;-68
2022/06/23 07:34:09;;;;;;;9.35;4.93;;;;;;;18.76;66.05;100149.06;5073817;28;20075;-69
2022/06/23 07:36:53;;;;;;;14.02;5.13;;;;;;;18.42;67.04;100151.75;5078983;28;20112;-69
2022/06/23 07:39:25;;;;;;;6.95;4.63;;;;;;;18.47;67.29;100153.59;5075390;28;20068;-68
2022/06/23 07:42:09;;;;;;;10.82;5.07;;;;;;;18.31;67.83;100161.81;5082285;28;20489;-68
2022/06/23 07:44:45;;;;;;;11.70;5.20;;;;;;;18.16;68.25;100160.44;5068066;28;20644;-69
2022/06/23 07:47:12;;;;;;;30.15;27.42;;;;;;;17.69;68.84;100125.72;5083105;28;20055;-68
2022/06/23 07:49:39;;;;;;;7.88;4.97;;;;;;;17.87;69.68;100168.88;5079696;28;20131;-68
2022/06/23 07:52:06;;;;;;;31.10;28.98;;;;;;;17.71;70.23;100171.41;5077795;28;20065;-68
2022/06/23 07:54:35;;;;;;;30.52;28.27;;;;;;;17.43;70.15;100137.94;5072371;28;20097;-69
2022/06/23 07:57:03;;;;;;;28.33;26.42;;;;;;;17.64;70.65;100160.66;5073090;28;20056;-68
2022/06/23 07:59:38;;;;;;;38.75;36.42;;;;;;;17.72;70.56;100173.91;5074833;28;20143;-68
2022/06/23 08:02:17;;;;;;;31.58;29.02;;;;;;;17.72;70.97;100179.53;5074359;28;20048;-69
2022/06/23 08:05:08;;;;;;;28.40;26.38;;;;;;;17.77;71.23;100178.53;5070992;28;22557;-68
2022/06/23 08:07:36;;;;;;;27.38;25.45;;;;;;;17.61;71.62;100166.16;5069728;28;20050;-68
2022/06/23 08:10:11;;;;;;;25.40;23.90;;;;;;;17.34;71.97;100144.81;5072308;28;20125;-69
2022/06/23 08:12:55;;;;;;;24.13;22.38;;;;;;;17.54;72.62;100177.94;5069123;28;20052;-68
2022/06/23 08:18:47;;;;;;;14.55;13.20;;;;;;;17.55;72.88;100179.59;5081739;28;20499;-68
2022/06/23 08:21:17;;;;;;;8.48;4.10;;;;;;;17.58;72.84;100195.88;5080777;28;20036;-68
2022/06/23 08:24:08;;;;;;;7.40;3.60;;;;;;;17.41;73.17;100185.44;5076938;28;20814;-68
2022/06/23 08:26:38;;;;;;;7.63;3.85;;;;;;;17.54;73.08;100189.25;5080774;28;20071;-69
2022/06/23 08:29:10;;;;;;;7.70;3.08;;;;;;;17.50;73.23;100199.53;5089236;28;20087;-69
2022/06/23 08:31:38;;;;;;;8.90;3.75;;;;;;;17.31;74.02;100191.44;5075696;28;20079;-69
2022/06/23 08:34:26;;;;;;;7.32;4.10;;;;;;;17.31;74.16;100188.63;5081203;28;20056;-69
2022/06/23 08:37:00;;;;;;;9.18;3.85;;;;;;;17.15;73.69;100157.28;5082890;28;20051;-68
2022/06/23 08:39:53;;;;;;;5.78;3.75;;;;;;;17.35;74.33;100202.91;5082471;28;20059;-68
2022/06/23 08:42:29;;;;;;;10.77;4.25;;;;;;;17.28;74.54;100181.66;5097057;28;20079;-69
2022/06/23 08:45:01;;;;;;;6.35;3.28;;;;;;;17.38;74.84;100196.59;5097489;28;20052;-69
2022/06/23 08:47:46;;;;;;;6.97;3.78;;;;;;;17.40;74.73;100195.09;5087501;28;20063;-69
2022/06/23 08:50:25;;;;;;;26.50;24.42;;;;;;;17.45;74.92;100199.72;5075600;28;20110;-69
2022/06/23 08:53:22;;;;;;;32.47;30.48;;;;;;;17.19;74.63;100166.72;5089633;28;20058;-68
2022/06/23 08:55:52;;;;;;;27.00;25.30;;;;;;;17.54;74.90;100203.38;5060957;28;20098;-68
2022/06/23 08:58:22;;;;;;;;;;;;;;;17.48;75.80;100201.88;5075623;28;20475;-70
2022/06/23 09:00:59;;;;;;;29.15;27.30;;;;;;;17.55;75.88;100202.19;5076184;28;20018;-69
2022/06/23 09:03:58;;;;;;;29.05;27.08;;;;;;;17.58;76.46;100207.16;5084667;28;20108;-69
2022/06/23 09:06:25;;;;;;;30.27;27.92;;;;;;;17.62;77.24;100212.97;5082604;28;20139;-69
2022/06/23 09:09:04;;;;;;;30.50;28.60;;;;;;;17.31;77.56;100151.13;5076132;28;20555;-69
2022/06/23 09:11:46;;;;;;;30.45;28.45;;;;;;;17.60;77.85;100207.63;5079371;28;20076;-69
2022/06/23 09:14:16;;;;;;;30.13;28.33;;;;;;;17.62;77.45;100218.63;5085369;28;20076;-69
2022/06/23 09:17:19;;;;;;;30.35;28.65;;;;;;;17.64;77.92;100217.13;5083148;28;20044;-69
2022/06/23 09:19:54;;;;;;;30.23;28.52;;;;;;;17.73;78.26;100209.44;5083262;28;20083;-68
2022/06/23 09:22:38;;;;;;;30.00;28.02;;;;;;;17.80;78.31;100220.25;5084459;28;20048;-68
2022/06/23 09:25:39;;;;;;;29.40;27.70;;;;;;;17.75;78.47;100220.41;5081653;28;20527;-69
2022/06/23 09:28:24;;;;;;;30.20;28.25;;;;;;;17.67;78.56;100218.41;5082203;28;20135;-69
2022/06/23 09:31:12;;;;;;;28.55;26.85;;;;;;;17.79;78.45;100229.06;5087358;28;20044;-69
2022/06/23 09:34:12;;;;;;;29.08;27.38;;;;;;;17.74;79.10;100227.19;5076112;28;20048;-70
2022/06/23 09:36:59;;;;;;;28.30;26.38;;;;;;;17.69;79.25;100242.34;5088171;28;20505;-69
2022/06/23 09:39:57;;;;;;;27.65;25.70;;;;;;;17.76;79.03;100241.84;5081338;28;20551;-69
2022/06/23 09:42:45;;;;;;;27.25;25.48;;;;;;;17.91;79.28;100238.47;5079168;28;20516;-68
2022/06/23 09:45:37;;;;;;;26.30;24.70;;;;;;;17.93;79.47;100236.16;5101481;28;20120;-68
2022/06/23 09:48:22;;;;;;;25.33;23.40;;;;;;;18.07;78.84;100249.25;5073253;28;20056;-70
2022/06/23 09:50:55;;;;;;;25.73;23.83;;;;;;;18.04;78.66;100247.91;5073217;28;20479;-69
2022/06/23 09:53:59;;;;;;;24.90;23.13;;;;;;;17.99;79.00;100248.09;5077800;28;20076;-69
2022/06/23 09:56:32;;;;;;;23.85;22.35;;;;;;;17.98;78.62;100255.75;5083158;28;20083;-69
2022/06/23 09:59:32;;;;;;;23.60;21.83;;;;;;;17.85;78.76;100253.97;5084616;28;20077;-67
2022/06/23 10:02:18;;;;;;;23.30;21.60;;;;;;;17.92;78.75;100261.94;5077177;28;20048;-69
2022/06/23 10:04:48;;;;;;;21.83;20.52;;;;;;;17.90;77.92;100262.25;5085579;28;20575;-68
2022/06/23 10:07:15;;;;;;;21.92;20.25;;;;;;;17.95;78.08;100261.25;5086429;28;20097;-69
2022/06/23 10:09:57;;;;;;;22.02;20.52;;;;;;;17.99;78.48;100273.53;5083443;28;20117;-69
2022/06/23 10:12:30;;;;;;;22.15;20.63;;;;;;;18.03;78.34;100259.56;5078307;28;20102;-68
2022/06/23 10:15:15;;;;;;;23.38;21.45;;;;;;;18.12;78.62;100271.63;5087154;28;20059;-69
2022/06/23 10:18:13;;;;;;;22.63;20.85;;;;;;;18.21;78.39;100272.44;5071715;28;20048;-69
2022/06/23 10:20:52;;;;;;;21.67;20.27;;;;;;;18.22;78.03;100266.47;5084023;28;20135;-69
2022/06/23 10:23:27;;;;;;;21.83;20.25;;;;;;;18.21;77.88;100273.28;5076633;28;20135;-68
2022/06/23 10:26:03;;;;;;;22.95;21.10;;;;;;;18.26;77.56;100282.75;5072573;28;20084;-68
2022/06/23 10:28:53;;;;;;;21.65;20.35;;;;;;;18.24;77.28;100291.56;5082245;28;20052;-67
2022/06/23 10:31:39;;;;;;;22.35;20.30;;;;;;;18.34;77.54;100279.88;5080281;28;20075;-70
2022/06/23 10:34:30;;;;;;;5.57;3.55;;;;;;;18.23;77.48;100284.25;5071645;28;20422;-69
2022/06/23 10:37:00;;;;;;;7.20;3.42;;;;;;;18.15;77.23;100302.06;5077434;28;20105;-69
2022/06/23 10:39:39;;;;;;;7.93;3.63;;;;;;;18.08;77.35;100298.91;5077429;28;20571;-69
2022/06/23 10:42:15;;;;;;;22.88;21.40;;;;;;;18.10;77.10;100299.44;5070137;28;20557;-68
2022/06/23 10:44:53;;;;;;;28.48;26.48;;;;;;;18.12;77.69;100306.41;5085504;28;20097;-68
2022/06/23 10:47:55;;;;;;;25.15;23.52;;;;;;;18.19;77.97;100301.06;5074369;28;20127;-68
2022/06/23 10:50:35;;;;;;;22.70;20.83;;;;;;;18.20;77.86;100307.53;5077120;28;20105;-68
2022/06/23 10:53:31;;;;;;;20.83;19.52;;;;;;;18.21;77.33;100312.84;5074191;28;20075;-68
2022/06/23 10:56:21;;;;;;;21.02;19.73;;;;;;;18.23;77.74;100316.16;5075383;28;20388;-68
2022/06/23 10:59:14;;;;;;;21.27;19.55;;;;;;;18.18;78.39;100316.34;5074408;28;20083;-68
2022/06/23 11:02:00;;;;;;;21.38;20.17;;;;;;;18.18;77.94;100307.84;5079883;28;20047;-67
2022/06/23 11:04:36;;;;;;;22.17;20.55;;;;;;;18.31;78.02;100320.13;5073484;28;20529;-69
2022/06/23 11:07:12;;;;;;;20.80;19.45;;;;;;;18.29;77.75;100327.28;5071449;28;20601;-68
2022/06/23 11:09:48;;;;;;;26.27;24.42;;;;;;;18.22;77.66;100322.16;5077160;28;20110;-68
2022/06/23 11:12:39;;;;;;;8.88;3.72;;;;;;;18.22;77.63;100331.47;5074359;28;20094;-69
2022/06/23 11:15:24;;;;;;;7.38;4.15;;;;;;;18.28;78.59;100329.28;5081802;28;20053;-68
2022/06/23 11:18:17;;;;;;;7.07;3.40;;;;;;;18.20;78.65;100296.22;5088352;28;20206;-68
2022/06/23 11:21:02;;;;;;;5.95;3.78;;;;;;;18.55;78.45;100319.53;5072092;28;20109;-69
2022/06/23 11:23:42;;;;;;;6.70;3.65;;;;;;;18.62;78.04;100330.31;5081613;28;20048;-69
2022/06/23 11:26:35;;;;;;;7.10;4.03;;;;;;;18.62;78.77;100330.31;5076162;28;20083;-69
2022/06/23 11:29:23;;;;;;;9.57;3.95;;;;;;;18.68;78.47;100335.44;5051700;28;20083;-69
2022/06/23 11:32:17;;;;;;;4.32;2.70;;;;;;;18.75;78.33;100334.09;5075991;28;20106;-68
2022/06/23 11:35:01;;;;;;;6.07;2.63;;;;;;;18.90;78.26;100334.34;5079220;28;20043;-68
2022/06/23 11:37:51;;;;;;;8.15;3.53;;;;;;;19.14;78.27;100347.84;5075457;28;20052;-68
2022/06/23 11:40:49;;;;;;;7.30;4.43;;;;;;;19.43;78.86;100337.63;5046531;28;20498;-68
2022/06/23 11:43:51;;;;;;;9.55;3.72;;;;;;;19.65;78.97;100328.78;5070693;28;20052;-68
2022/06/23 11:46:45;;;;;;;6.32;3.75;;;;;;;19.74;78.42;100328.72;5043287;28;20517;-69
2022/06/23 11:49:33;;;;;;;10.20;4.40;;;;;;;19.36;78.34;100249.59;5077513;28;20063;-70
2022/06/23 11:52:25;;;;;;;9.15;4.35;;;;;;;19.94;77.99;100329.03;5074470;28;20036;-69
2022/06/23 11:55:07;;;;;;;10.15;4.65;;;;;;;20.06;78.26;100337.56;5070879;28;20132;-68
2022/06/23 11:58:13;;;;;;;5.43;3.13;;;;;;;20.15;77.47;100337.50;5076691;28;21269;-69
2022/06/23 12:01:01;;;;;;;5.40;3.53;;;;;;;20.16;76.87;100330.63;5012076;28;20049;-68
2022/06/23 12:03:46;;;;;;;6.60;3.50;;;;;;;20.26;76.64;100338.69;5006732;28;20077;-68
2022/06/23 12:06:16;;;;;;;3.45;2.65;;;;;;;20.43;76.56;100341.31;5072112;28;20099;-68
2022/06/23 12:09:05;;;;;;;6.65;3.22;;;;;;;20.63;76.53;100344.44;5085539;28;20052;-68
2022/06/23 12:11:34;;;;;;;4.53;3.08;;;;;;;20.88;76.45;100345.28;5087310;28;20080;-69
2022/06/23 12:14:03;;;;;;;4.82;3.10;;;;;;;20.88;76.15;100334.75;5084684;28;20080;-69
2022/06/23 12:16:31;;;;;;;9.27;2.83;;;;;;;21.05;76.06;100343.00;5073300;28;20076;-68
2022/06/23 12:19:06;;;;;;;6.10;3.17;;;;;;;20.90;75.88;100323.88;5074879;28;20516;-69
2022/06/23 12:22:08;;;;;;;9.35;3.90;;;;;;;21.01;76.36;100344.91;5078453;28;20119;-68
2022/06/23 12:24:44;;;;;;;6.15;2.92;;;;;;;20.95;75.65;100343.50;5062579;28;20044;-69